createdAt,value
2018-12-31T00:00:05.843Z,22.6
2018-12-31T00:00:56.387Z,22.6
2018-12-31T00:01:46.225Z,22.4
2018-12-31T00:02:34.920Z,21.9
2018-12-31T00:03:27.132Z,21.4
2018-12-31T00:04:15.739Z,21
2018-12-31T00:05:05.667Z,20.8
2018-12-31T00:05:57.690Z,20.4
2018-12-31T00:06:45.517Z,20.3
2018-12-31T00:07:37.187Z,20.1
2018-12-31T00:08:27.052Z,19.9
2018-12-31T00:09:16.252Z,19.8
2018-12-31T00:10:06.632Z,19.7
2018-12-31T00:10:56.892Z,19.6
2018-12-31T00:11:45.859Z,19.6
2018-12-31T00:12:37.739Z,19.3
2018-12-31T00:13:27.092Z,19.1
2018-12-31T00:14:17.134Z,18.9
2018-12-31T00:15:06.049Z,18.8
2018-12-31T00:33:16.946Z,21.6
2018-12-31T00:34:08.645Z,21.1
2018-12-31T00:34:58.488Z,20.8
2018-12-31T00:35:47.718Z,20.5
2018-12-31T00:36:38.873Z,20.3
2018-12-31T00:37:27.831Z,20.1
2018-12-31T00:38:18.240Z,20
2018-12-31T00:39:08.728Z,19.8
2018-12-31T00:39:56.401Z,19.7
2018-12-31T00:40:48.595Z,19.6
2018-12-31T00:41:37.017Z,19.6
2018-12-31T00:42:28.989Z,19.4
2018-12-31T00:43:19.587Z,19.2
2018-12-31T00:44:09.385Z,19
2018-12-31T00:44:58.337Z,18.8
2018-12-31T00:45:47.062Z,18.8
2018-12-31T00:46:39.342Z,19.1
2018-12-31T00:47:29.359Z,19.8
2018-12-31T00:48:19.070Z,20.3
2018-12-31T00:49:09.142Z,20.6
2018-12-31T00:49:58.126Z,20.9
2018-12-31T00:50:49.373Z,21.2
2018-12-31T00:51:39.325Z,21.4
2018-12-31T00:52:29.422Z,21.5
2018-12-31T00:53:19.172Z,21.6
2018-12-31T00:54:08.941Z,21.8
2018-12-31T00:54:58.711Z,21.9
2018-12-31T00:55:48.798Z,22
2018-12-31T00:56:39.741Z,22.1
2018-12-31T00:57:29.769Z,22.2
2018-12-31T00:58:20.062Z,22.3
2018-12-31T00:59:09.991Z,22.4
2018-12-31T01:00:00.553Z,22.4
2018-12-31T01:00:48.665Z,22.6
2018-12-31T01:01:39.756Z,22.6
2018-12-31T01:02:31.816Z,22.3
2018-12-31T01:03:18.851Z,21.7
2018-12-31T01:04:10.361Z,20.8
2018-12-31T01:05:00.037Z,20.1
2018-12-31T01:05:50.082Z,19.4
2018-12-31T01:06:39.891Z,18.5
2018-12-31T01:07:29.398Z,18.4
2018-12-31T01:08:19.474Z,18.4
2018-12-31T01:09:10.901Z,19.1
2018-12-31T01:10:00.265Z,19.7
2018-12-31T01:10:50.162Z,20.3
2018-12-31T01:11:40.750Z,20.7
2018-12-31T01:12:30.268Z,21
2018-12-31T01:13:20.572Z,21.3
2018-12-31T01:14:12.213Z,21.5
2018-12-31T01:15:01.052Z,21.7
2018-12-31T01:15:51.085Z,21.8
2018-12-31T01:16:40.490Z,22
2018-12-31T01:17:29.767Z,22.1
2018-12-31T01:18:20.905Z,22.3
2018-12-31T01:19:12.235Z,22.4
2018-12-31T01:20:00.750Z,22.4
2018-12-31T01:20:51.748Z,22.6
2018-12-31T01:21:40.299Z,22.6
2018-12-31T01:22:31.114Z,22.6
2018-12-31T01:23:21.801Z,21.9
2018-12-31T01:24:11.594Z,21.5
2018-12-31T01:25:51.702Z,20.8
2018-12-31T01:26:40.951Z,20.5
2018-12-31T01:27:32.087Z,20.3
2018-12-31T01:28:21.697Z,20.1
2018-12-31T01:29:10.894Z,20
2018-12-31T01:30:02.866Z,19.8
2018-12-31T01:30:52.372Z,19.7
2018-12-31T01:31:41.071Z,19.6
2018-12-31T01:32:31.406Z,19.6
2018-12-31T01:33:21.961Z,19.4
2018-12-31T01:34:12.565Z,19.2
2018-12-31T01:35:02.673Z,19
2018-12-31T01:35:52.711Z,18.9
2018-12-31T01:36:42.428Z,18.8
2018-12-31T01:37:32.026Z,18.9
2018-12-31T01:38:22.848Z,19.6
2018-12-31T01:39:12.890Z,20.1
2018-12-31T01:40:03.535Z,20.6
2018-12-31T01:40:51.923Z,20.8
2018-12-31T01:41:43.810Z,21.1
2018-12-31T01:42:33.438Z,21.3
2018-12-31T01:43:22.170Z,21.5
2018-12-31T01:44:12.087Z,21.6
2018-12-31T01:45:02.199Z,21.8
2018-12-31T01:45:52.622Z,21.9
2018-12-31T01:46:41.542Z,22.1
2018-12-31T01:47:32.960Z,22.1
2018-12-31T01:48:22.505Z,22.3
2018-12-31T01:49:12.610Z,22.3
2018-12-31T01:50:03.319Z,22.4
2018-12-31T01:50:52.079Z,22.5
2018-12-31T01:51:43.550Z,22.6
2018-12-31T01:52:33.354Z,22.6
2018-12-31T01:53:23.924Z,21.9
2018-12-31T01:54:13.896Z,21.5
2018-12-31T01:55:04.544Z,21.1
2018-12-31T01:55:53.190Z,20.8
2018-12-31T01:56:43.276Z,20.5
2018-12-31T01:57:33.891Z,20.3
2018-12-31T01:58:23.409Z,20.1
2018-12-31T01:59:14.279Z,20
2018-12-31T02:00:03.864Z,19.8
2018-12-31T02:00:53.977Z,19.7
2018-12-31T02:01:42.526Z,19.6
2018-12-31T02:02:34.019Z,19.5
2018-12-31T02:03:23.496Z,19.4
2018-12-31T02:04:13.218Z,19.2
2018-12-31T02:05:04.699Z,19
2018-12-31T02:05:54.190Z,18.9
2018-12-31T02:06:43.968Z,18.8
2018-12-31T02:07:34.853Z,18.9
2018-12-31T02:08:23.806Z,19.6
2018-12-31T02:09:13.919Z,20.1
2018-12-31T02:10:04.596Z,20.5
2018-12-31T02:10:54.818Z,20.9
2018-12-31T02:12:35.461Z,21.3
2018-12-31T02:13:23.956Z,21.5
2018-12-31T02:14:14.542Z,21.6
2018-12-31T02:15:04.275Z,21.8
2018-12-31T02:15:55.902Z,21.9
2018-12-31T02:16:44.615Z,22
2018-12-31T02:17:35.548Z,22.1
2018-12-31T02:18:24.780Z,22.3
2018-12-31T02:19:14.390Z,22.3
2018-12-31T02:20:04.540Z,22.4
2018-12-31T02:20:55.182Z,22.4
2018-12-31T02:21:46.347Z,22.5
2018-12-31T02:22:35.450Z,22.4
2018-12-31T02:23:25.109Z,21.9
2018-12-31T02:24:15.494Z,21.4
2018-12-31T02:25:05.248Z,21.1
2018-12-31T02:25:55.879Z,20.8
2018-12-31T02:26:45.654Z,20.6
2018-12-31T02:27:35.691Z,20.3
2018-12-31T02:28:26.096Z,20.1
2018-12-31T02:29:16.117Z,19.9
2018-12-31T02:30:06.745Z,19.8
2018-12-31T02:30:55.774Z,19.7
2018-12-31T02:31:46.470Z,19.6
2018-12-31T02:32:36.079Z,19.5
2018-12-31T02:33:26.547Z,19.4
2018-12-31T02:34:16.200Z,19.2
2018-12-31T02:35:06.040Z,19
2018-12-31T02:35:55.505Z,18.8
2018-12-31T02:36:46.109Z,18.8
2018-12-31T02:37:35.346Z,19.1
2018-12-31T02:38:26.434Z,19.8
2018-12-31T02:39:16.618Z,20.3
2018-12-31T02:40:07.969Z,20.6
2018-12-31T02:40:55.326Z,20.9
2018-12-31T02:42:38.355Z,21.4
2018-12-31T02:43:25.563Z,21.5
2018-12-31T02:44:16.872Z,21.7
2018-12-31T02:45:08.436Z,21.8
2018-12-31T02:45:56.988Z,21.9
2018-12-31T02:46:47.431Z,22.1
2018-12-31T02:47:40.251Z,22.1
2018-12-31T02:48:27.755Z,22.3
2018-12-31T02:49:16.922Z,22.4
2018-12-31T02:50:07.061Z,22.4
2018-12-31T02:50:57.621Z,22.5
2018-12-31T02:51:47.281Z,22.6
2018-12-31T02:52:38.473Z,22.6
2018-12-31T02:53:26.188Z,22.1
2018-12-31T02:54:16.696Z,21.6
2018-12-31T02:55:08.280Z,21.2
2018-12-31T02:55:57.423Z,20.9
2018-12-31T02:56:47.760Z,20.6
2018-12-31T02:57:37.870Z,20.3
2018-12-31T02:58:27.655Z,20.1
2018-12-31T02:59:17.870Z,20
2018-12-31T03:00:08.403Z,19.8
2018-12-31T03:00:58.408Z,19.7
2018-12-31T03:01:48.917Z,19.6
2018-12-31T03:02:38.733Z,19.5
2018-12-31T03:03:29.275Z,19.4
2018-12-31T03:04:17.508Z,19.3
2018-12-31T03:05:08.102Z,19.1
2018-12-31T03:05:59.195Z,18.9
2018-12-31T03:06:48.422Z,18.8
2018-12-31T03:07:38.292Z,18.9
2018-12-31T03:08:29.530Z,19.6
2018-12-31T03:09:17.527Z,20.1
2018-12-31T03:10:08.117Z,20.5
2018-12-31T03:10:58.686Z,20.8
2018-12-31T03:11:49.026Z,21.1
2018-12-31T03:12:39.360Z,21.3
2018-12-31T03:13:27.336Z,21.4
2018-12-31T03:14:18.140Z,21.4
2018-12-31T03:15:08.810Z,20.9
2018-12-31T03:15:57.710Z,20.2
2018-12-31T03:16:48.727Z,19.6
2018-12-31T03:17:38.953Z,19
2018-12-31T03:18:28.429Z,18.3
2018-12-31T03:19:18.472Z,17.5
2018-12-31T03:20:09.566Z,17.6
2018-12-31T03:20:59.198Z,17.6
2018-12-31T03:21:48.375Z,18.4
2018-12-31T03:22:38.989Z,19.1
2018-12-31T03:23:29.447Z,19.6
2018-12-31T03:24:18.669Z,20.2
2018-12-31T03:25:09.403Z,20.6
2018-12-31T03:26:00.037Z,20.9
2018-12-31T03:27:39.296Z,21.3
2018-12-31T03:28:30.419Z,21.5
2018-12-31T03:29:19.456Z,21.7
2018-12-31T03:30:10.532Z,21.8
2018-12-31T03:30:59.724Z,22
2018-12-31T03:31:50.865Z,22.1
2018-12-31T03:32:40.773Z,22.2
2018-12-31T03:33:30.252Z,22.3
2018-12-31T03:34:20.594Z,22.4
2018-12-31T03:35:11.300Z,22.4
2018-12-31T03:36:00.214Z,22.6
2018-12-31T03:36:50.203Z,22.7
2018-12-31T03:37:40.052Z,22.7
2018-12-31T03:38:30.313Z,22.3
2018-12-31T03:39:21.421Z,21.8
2018-12-31T03:40:10.411Z,21.3
2018-12-31T03:41:00.716Z,20.9
2018-12-31T03:41:50.942Z,20.7
2018-12-31T03:42:41.126Z,20.4
2018-12-31T03:43:31.454Z,20.2
2018-12-31T03:44:20.166Z,20.1
2018-12-31T03:45:11.335Z,19.9
2018-12-31T03:46:01.123Z,19.8
2018-12-31T03:46:50.690Z,19.6
2018-12-31T03:47:41.198Z,19.6
2018-12-31T03:48:31.611Z,19.4
2018-12-31T03:49:21.675Z,19.2
2018-12-31T03:50:11.254Z,19
2018-12-31T03:51:01.440Z,18.8
2018-12-31T03:51:50.363Z,18.8
2018-12-31T03:52:41.295Z,19.2
2018-12-31T03:53:31.998Z,19.8
2018-12-31T03:54:21.863Z,20.3
2018-12-31T03:55:11.768Z,20.7
2018-12-31T03:56:02.585Z,20.9
2018-12-31T03:57:41.607Z,21.4
2018-12-31T03:58:31.315Z,21.6
2018-12-31T03:59:21.227Z,21.7
2018-12-31T04:00:11.250Z,21.8
2018-12-31T04:01:01.803Z,21.9
2018-12-31T04:01:52.745Z,22.1
2018-12-31T04:02:42.777Z,22.2
2018-12-31T04:03:32.835Z,22.3
2018-12-31T04:04:22.378Z,22.4
2018-12-31T04:05:11.649Z,22.4
2018-12-31T04:06:01.902Z,22.5
2018-12-31T04:06:52.252Z,22.6
2018-12-31T04:07:42.598Z,22.6
2018-12-31T04:08:32.117Z,22
2018-12-31T04:09:23.307Z,21.6
2018-12-31T04:10:12.032Z,21.2
2018-12-31T04:11:03.160Z,20.9
2018-12-31T04:11:53.415Z,20.6
2018-12-31T04:12:43.212Z,20.4
2018-12-31T04:13:33.242Z,20.2
2018-12-31T04:14:22.281Z,20
2018-12-31T04:15:13.366Z,19.8
2018-12-31T04:16:03.481Z,19.8
2018-12-31T04:16:52.994Z,19.6
2018-12-31T04:17:43.807Z,19.6
2018-12-31T04:18:33.577Z,19.4
2018-12-31T04:19:24.488Z,19.2
2018-12-31T04:20:13.729Z,19
2018-12-31T04:21:03.590Z,18.9
2018-12-31T04:21:54.156Z,18.8
2018-12-31T04:22:41.918Z,19
2018-12-31T04:23:35.987Z,19.7
2018-12-31T04:24:24.043Z,20.2
2018-12-31T04:25:14.550Z,20.6
2018-12-31T04:26:03.873Z,20.9
2018-12-31T04:27:43.450Z,21.3
2018-12-31T04:28:34.316Z,21.5
2018-12-31T04:29:22.966Z,21.6
2018-12-31T04:30:13.435Z,21.8
2018-12-31T04:31:04.298Z,21.9
2018-12-31T04:31:53.716Z,22
2018-12-31T04:32:44.105Z,22.1
2018-12-31T04:33:34.435Z,22.2
2018-12-31T04:34:24.807Z,22.3
2018-12-31T04:35:14.880Z,22.3
2018-12-31T04:36:04.061Z,22.4
2018-12-31T04:36:54.329Z,22.5
2018-12-31T04:37:45.476Z,22.5
2018-12-31T04:38:35.027Z,22.6
2018-12-31T04:39:25.039Z,22.1
2018-12-31T04:40:14.595Z,21.6
2018-12-31T04:41:55.017Z,20.8
2018-12-31T04:42:44.445Z,20.6
2018-12-31T04:43:35.052Z,20.3
2018-12-31T04:44:23.981Z,20.2
2018-12-31T04:45:14.980Z,20
2018-12-31T05:02:37.034Z,21.8
2018-12-31T05:03:26.301Z,22
2018-12-31T05:04:15.711Z,22.1
2018-12-31T05:05:06.178Z,22.1
2018-12-31T05:05:55.847Z,22.2
2018-12-31T05:06:45.898Z,22.1
2018-12-31T05:07:36.313Z,21.5
2018-12-31T05:08:26.850Z,20.6
2018-12-31T05:09:15.080Z,19.9
2018-12-31T05:10:05.363Z,19.4
2018-12-31T05:10:56.620Z,18.6
2018-12-31T05:11:45.715Z,17.9
2018-12-31T05:12:37.141Z,17.9
2018-12-31T05:13:26.368Z,18.1
2018-12-31T05:14:16.300Z,18.8
2018-12-31T05:15:06.022Z,19.4
2018-12-31T05:15:56.525Z,20
2018-12-31T05:16:47.154Z,20.4
2018-12-31T05:17:38.040Z,20.8
2018-12-31T05:18:26.950Z,21.1
2018-12-31T05:19:16.196Z,21.3
2018-12-31T05:20:07.167Z,21.5
2018-12-31T05:20:56.295Z,21.7
2018-12-31T05:21:46.680Z,21.8
2018-12-31T05:22:36.680Z,21.9
2018-12-31T05:23:26.026Z,22.1
2018-12-31T05:24:16.558Z,22.2
2018-12-31T05:25:07.125Z,22.3
2018-12-31T05:25:56.457Z,22.4
2018-12-31T05:26:47.526Z,22.4
2018-12-31T05:27:38.649Z,22.6
2018-12-31T05:28:27.082Z,22.6
2018-12-31T05:29:17.167Z,22.6
2018-12-31T05:30:07.793Z,22
2018-12-31T05:30:56.152Z,21.5
2018-12-31T05:32:37.617Z,20.8
2018-12-31T05:33:28.605Z,20.6
2018-12-31T05:34:18.399Z,20.3
2018-12-31T05:35:07.839Z,20.2
2018-12-31T05:35:58.167Z,20
2018-12-31T05:36:47.921Z,19.8
2018-12-31T05:37:37.180Z,19.8
2018-12-31T05:38:28.706Z,19.6
2018-12-31T05:39:18.657Z,19.5
2018-12-31T05:40:08.414Z,19.3
2018-12-31T05:40:58.456Z,19.1
2018-12-31T05:41:47.731Z,18.9
2018-12-31T05:42:38.327Z,18.8
2018-12-31T05:43:27.781Z,18.8
2018-12-31T05:44:17.979Z,19.3
2018-12-31T05:45:08.306Z,19.9
2018-12-31T05:45:58.304Z,20.3
2018-12-31T05:46:48.627Z,20.7
2018-12-31T05:47:38.451Z,20.9
2018-12-31T05:48:27.650Z,21.2
2018-12-31T05:49:19.131Z,21.4
2018-12-31T05:50:09.697Z,21.6
2018-12-31T05:50:59.170Z,21.8
2018-12-31T05:51:49.561Z,21.9
2018-12-31T05:52:38.204Z,21.9
2018-12-31T05:53:28.756Z,22.1
2018-12-31T05:54:18.595Z,22.1
2018-12-31T05:55:09.322Z,22.2
2018-12-31T05:55:59.271Z,22.3
2018-12-31T05:56:48.223Z,22.4
2018-12-31T05:57:39.113Z,22.4
2018-12-31T05:58:29.163Z,22.6
2018-12-31T05:59:19.530Z,22.6
2018-12-31T06:00:09.546Z,22.3
2018-12-31T06:00:59.329Z,21.8
2018-12-31T06:01:49.108Z,21.3
2018-12-31T06:02:39.758Z,21
2018-12-31T06:03:30.578Z,20.7
2018-12-31T06:04:20.103Z,20.4
2018-12-31T06:05:09.552Z,20.3
2018-12-31T06:05:59.985Z,20.1
2018-12-31T06:06:49.159Z,19.9
2018-12-31T06:07:40.393Z,19.8
2018-12-31T06:08:30.002Z,19.6
2018-12-31T06:09:19.907Z,19.5
2018-12-31T06:10:10.503Z,19.5
2018-12-31T06:11:00.287Z,19.3
2018-12-31T06:11:50.322Z,19.1
2018-12-31T06:12:40.654Z,19
2018-12-31T06:13:31.816Z,18.8
2018-12-31T06:15:11.477Z,19.3
2018-12-31T06:16:00.856Z,19.9
2018-12-31T06:16:50.707Z,20.3
2018-12-31T06:17:40.519Z,20.8
2018-12-31T06:18:30.713Z,21
2018-12-31T06:19:20.900Z,21.2
2018-12-31T06:20:10.414Z,21.4
2018-12-31T06:21:01.003Z,21.5
2018-12-31T06:21:51.294Z,21.7
2018-12-31T06:22:41.616Z,21.8
2018-12-31T06:23:31.984Z,21.9
2018-12-31T06:24:21.196Z,22
2018-12-31T06:25:10.594Z,22.1
2018-12-31T06:26:01.120Z,22.2
2018-12-31T06:26:51.682Z,22.3
2018-12-31T06:27:41.099Z,22.3
2018-12-31T06:28:31.494Z,22.4
2018-12-31T06:29:20.671Z,22.4
2018-12-31T06:30:11.026Z,22.5
2018-12-31T06:31:02.743Z,22.6
2018-12-31T06:31:51.966Z,22.1
2018-12-31T06:32:40.629Z,21.6
2018-12-31T06:33:32.184Z,21.2
2018-12-31T06:34:21.970Z,20.9
2018-12-31T06:35:12.553Z,20.6
2018-12-31T06:36:02.295Z,20.3
2018-12-31T06:36:51.553Z,20.1
2018-12-31T06:37:42.142Z,20
2018-12-31T06:38:32.128Z,19.8
2018-12-31T06:39:22.556Z,19.7
2018-12-31T06:40:12.271Z,19.6
2018-12-31T06:41:02.551Z,19.5
2018-12-31T06:41:51.810Z,19.4
2018-12-31T06:42:42.167Z,19.3
2018-12-31T06:43:31.698Z,19
2018-12-31T06:44:22.832Z,18.9
2018-12-31T06:45:12.673Z,18.8
2018-12-31T06:46:02.436Z,18.9
2018-12-31T06:46:53.129Z,19.5
2018-12-31T06:47:43.103Z,20.1
2018-12-31T06:48:32.258Z,20.4
2018-12-31T06:49:23.085Z,20.8
2018-12-31T06:50:12.465Z,21
2018-12-31T06:51:02.807Z,21.2
2018-12-31T06:51:53.102Z,21.4
2018-12-31T06:52:42.840Z,21.5
2018-12-31T06:53:33.179Z,21.7
2018-12-31T06:54:23.215Z,21.8
2018-12-31T06:55:12.792Z,21.9
2018-12-31T06:56:03.606Z,21.9
2018-12-31T06:56:53.117Z,22.1
2018-12-31T06:57:43.715Z,22.3
2018-12-31T06:58:34.711Z,22.3
2018-12-31T06:59:23.577Z,21.9
2018-12-31T07:00:14.769Z,21.3
2018-12-31T07:01:03.394Z,20.4
2018-12-31T07:01:53.439Z,19.9
2018-12-31T07:02:43.321Z,19.3
2018-12-31T07:03:33.334Z,18.6
2018-12-31T07:04:22.614Z,17.9
2018-12-31T07:05:14.506Z,17.9
2018-12-31T07:06:04.285Z,18
2018-12-31T07:06:54.118Z,18.8
2018-12-31T07:07:43.924Z,19.4
2018-12-31T07:08:33.631Z,20.1
2018-12-31T07:09:24.024Z,20.5
2018-12-31T07:10:13.494Z,20.9
2018-12-31T07:11:03.786Z,21.2
2018-12-31T07:11:54.133Z,21.5
2018-12-31T07:12:43.916Z,21.7
2018-12-31T07:13:35.871Z,21.9
2018-12-31T07:14:25.388Z,22.1
2018-12-31T07:15:15.430Z,22.2
2018-12-31T07:16:04.570Z,22.3
2018-12-31T07:16:54.785Z,22.5
2018-12-31T07:17:45.078Z,22.6
2018-12-31T07:18:33.877Z,22.7
2018-12-31T07:19:24.635Z,22.8
2018-12-31T07:20:14.558Z,22.9
2018-12-31T07:21:05.270Z,22.9
2018-12-31T07:21:55.063Z,23
2018-12-31T07:22:45.164Z,22.5
2018-12-31T07:23:35.765Z,21.9
2018-12-31T07:24:25.312Z,21.5
2018-12-31T07:26:05.614Z,20.8
2018-12-31T07:26:54.400Z,20.6
2018-12-31T07:27:45.337Z,20.4
2018-12-31T07:28:36.149Z,20.3
2018-12-31T07:29:25.616Z,20.1
2018-12-31T07:30:15.208Z,20
2018-12-31T07:31:04.686Z,19.8
2018-12-31T07:31:55.239Z,19.8
2018-12-31T07:32:46.139Z,19.7
2018-12-31T07:33:35.441Z,19.5
2018-12-31T07:34:25.449Z,19.3
2018-12-31T07:35:18.172Z,19.1
2018-12-31T07:36:05.913Z,19
2018-12-31T07:36:56.404Z,19
2018-12-31T07:37:46.180Z,19.7
2018-12-31T07:38:36.216Z,20.2
2018-12-31T07:39:26.593Z,20.6
2018-12-31T07:40:15.486Z,20.9
2018-12-31T07:41:55.631Z,21.4
2018-12-31T07:42:47.056Z,21.6
2018-12-31T07:43:36.891Z,21.8
2018-12-31T07:44:26.461Z,22
2018-12-31T07:45:16.406Z,22.1
2018-12-31T07:46:06.763Z,22.3
2018-12-31T07:46:56.531Z,22.4
2018-12-31T07:47:46.579Z,22.5
2018-12-31T07:48:36.921Z,22.6
2018-12-31T07:49:26.956Z,22.7
2018-12-31T07:50:17.403Z,22.8
2018-12-31T07:51:07.115Z,22.9
2018-12-31T07:51:58.018Z,22.9
2018-12-31T07:52:47.825Z,22.4
2018-12-31T07:53:37.072Z,21.9
2018-12-31T07:54:27.677Z,21.5
2018-12-31T07:56:06.132Z,20.9
2018-12-31T07:56:58.552Z,20.6
2018-12-31T07:57:49.478Z,20.4
2018-12-31T07:58:37.363Z,20.3
2018-12-31T07:59:27.681Z,20.1
2018-12-31T08:00:17.235Z,19.9
2018-12-31T08:01:07.673Z,19.9
2018-12-31T08:01:57.657Z,19.8
2018-12-31T08:02:47.660Z,19.7
2018-12-31T08:03:38.198Z,19.5
2018-12-31T08:04:28.007Z,19.3
2018-12-31T08:05:18.085Z,19.1
2018-12-31T08:06:08.412Z,18.9
2018-12-31T08:06:58.404Z,18.9
2018-12-31T08:07:48.300Z,19.6
2018-12-31T08:08:38.572Z,20.1
2018-12-31T08:09:28.467Z,20.5
2018-12-31T08:10:18.155Z,20.8
2018-12-31T08:11:08.796Z,21.1
2018-12-31T08:11:58.803Z,21.2
2018-12-31T08:12:49.114Z,21.4
2018-12-31T08:13:38.382Z,21.6
2018-12-31T08:14:28.744Z,21.7
2018-12-31T08:15:18.207Z,21.9
2018-12-31T08:16:08.349Z,22
2018-12-31T08:16:59.161Z,22.1
2018-12-31T08:17:48.959Z,22.2
2018-12-31T08:18:39.887Z,22.3
2018-12-31T08:19:29.954Z,22.4
2018-12-31T08:20:18.269Z,22.5
2018-12-31T08:21:08.609Z,22.6
2018-12-31T08:21:59.504Z,22.7
2018-12-31T08:22:48.961Z,22.7
2018-12-31T08:23:39.521Z,22.1
2018-12-31T08:24:28.803Z,21.6
2018-12-31T08:25:19.532Z,21.2
2018-12-31T08:26:09.621Z,20.9
2018-12-31T08:26:59.524Z,20.6
2018-12-31T08:27:49.350Z,20.4
2018-12-31T08:28:39.659Z,20.2
2018-12-31T08:29:29.462Z,20
2018-12-31T08:30:22.037Z,19.9
2018-12-31T08:31:10.416Z,19.8
2018-12-31T08:32:00.446Z,19.6
2018-12-31T08:32:49.111Z,19.6
2018-12-31T08:33:40.259Z,19.4
2018-12-31T08:34:29.469Z,19.1
2018-12-31T08:35:20.663Z,19
2018-12-31T08:36:10.178Z,18.9
2018-12-31T08:37:01.133Z,18.9
2018-12-31T08:37:50.360Z,19.6
2018-12-31T08:38:39.528Z,20.1
2018-12-31T08:39:30.398Z,20.5
2018-12-31T08:40:20.980Z,20.8
2018-12-31T08:41:09.950Z,21.1
2018-12-31T08:42:00.630Z,21.3
2018-12-31T08:42:50.068Z,21.5
2018-12-31T08:43:40.383Z,21.7
2018-12-31T08:44:30.730Z,21.8
2018-12-31T08:45:20.839Z,21.9
2018-12-31T08:46:10.582Z,22.1
2018-12-31T08:47:00.690Z,22.2
2018-12-31T08:47:50.427Z,22.3
2018-12-31T08:48:41.018Z,22.4
2018-12-31T08:49:31.090Z,22.5
2018-12-31T08:50:21.119Z,22.6
2018-12-31T08:51:11.028Z,22.6
2018-12-31T08:52:01.000Z,22
2018-12-31T08:53:40.237Z,20.3
2018-12-31T08:54:31.062Z,19.8
2018-12-31T08:55:23.565Z,19.1
2018-12-31T08:56:10.984Z,18.2
2018-12-31T08:57:02.159Z,17.9
2018-12-31T08:57:50.874Z,18
2018-12-31T08:58:41.882Z,18.4
2018-12-31T08:59:31.557Z,19.3
2018-12-31T09:00:21.817Z,19.8
2018-12-31T09:01:11.635Z,20.4
2018-12-31T09:16:59.581Z,20.4
2018-12-31T09:17:49.895Z,20.3
2018-12-31T09:18:38.878Z,20.1
2018-12-31T09:19:29.211Z,19.9
2018-12-31T09:20:19.875Z,19.8
2018-12-31T09:21:09.398Z,19.6
2018-12-31T09:22:00.390Z,19.5
2018-12-31T09:22:50.538Z,19.5
2018-12-31T09:23:41.352Z,19.3
2018-12-31T09:24:30.630Z,19.1
2018-12-31T09:25:20.925Z,18.9
2018-12-31T09:26:10.808Z,18.9
2018-12-31T09:27:00.695Z,19.6
2018-12-31T09:27:50.498Z,20.2
2018-12-31T09:28:40.365Z,20.6
2018-12-31T09:29:30.442Z,20.9
2018-12-31T09:31:12.351Z,21.4
2018-12-31T09:32:01.161Z,21.6
2018-12-31T09:32:51.207Z,21.8
2018-12-31T09:33:39.654Z,21.9
2018-12-31T09:34:30.837Z,22.1
2018-12-31T09:35:20.819Z,22.2
2018-12-31T09:36:10.661Z,22.3
2018-12-31T09:37:01.002Z,22.4
2018-12-31T09:37:51.566Z,22.6
2018-12-31T09:38:40.546Z,22.6
2018-12-31T09:39:31.419Z,22.7
2018-12-31T09:40:21.506Z,22.8
2018-12-31T09:41:11.502Z,22.3
2018-12-31T09:42:01.094Z,21.8
2018-12-31T09:42:50.902Z,21.3
2018-12-31T09:43:41.666Z,20.9
2018-12-31T09:44:31.166Z,20.6
2018-12-31T09:45:21.039Z,20.3
2018-12-31T09:46:11.029Z,20.1
2018-12-31T09:47:02.198Z,19.9
2018-12-31T09:47:50.951Z,19.8
2018-12-31T09:48:42.026Z,19.7
2018-12-31T09:49:31.258Z,19.6
2018-12-31T09:50:21.361Z,19.5
2018-12-31T09:51:12.473Z,19.4
2018-12-31T09:52:01.866Z,19.3
2018-12-31T09:52:52.327Z,19
2018-12-31T09:53:42.083Z,18.9
2018-12-31T09:54:32.100Z,18.8
2018-12-31T09:55:22.913Z,19.5
2018-12-31T09:56:12.611Z,20
2018-12-31T09:57:03.118Z,20.4
2018-12-31T09:57:52.555Z,20.8
2018-12-31T09:58:45.555Z,21
2018-12-31T09:59:32.975Z,21.3
2018-12-31T10:00:22.518Z,21.4
2018-12-31T10:01:12.848Z,21.6
2018-12-31T10:02:03.180Z,21.8
2018-12-31T10:02:52.121Z,21.9
2018-12-31T10:03:42.753Z,22.1
2018-12-31T10:04:32.260Z,22.2
2018-12-31T10:05:23.730Z,22.3
2018-12-31T10:06:13.677Z,22.4
2018-12-31T10:07:04.437Z,22.6
2018-12-31T10:07:54.110Z,22.6
2018-12-31T10:08:51.750Z,22.7
2018-12-31T10:09:32.907Z,22.3
2018-12-31T10:10:23.399Z,21.9
2018-12-31T10:11:13.240Z,21.4
2018-12-31T10:12:04.157Z,21.1
2018-12-31T10:12:53.326Z,20.8
2018-12-31T10:13:44.424Z,20.5
2018-12-31T10:14:32.887Z,20.3
2018-12-31T10:15:24.339Z,20.1
2018-12-31T10:16:14.695Z,19.9
2018-12-31T10:17:04.742Z,19.8
2018-12-31T10:17:53.117Z,19.7
2018-12-31T10:18:44.894Z,19.6
2018-12-31T10:19:35.164Z,19.5
2018-12-31T10:20:23.829Z,19.4
2018-12-31T10:21:16.691Z,19.2
2018-12-31T10:22:04.314Z,19
2018-12-31T10:22:54.934Z,18.9
2018-12-31T10:23:44.925Z,19.2
2018-12-31T10:24:35.238Z,19.8
2018-12-31T10:25:24.731Z,20.4
2018-12-31T10:26:13.979Z,20.8
2018-12-31T10:27:06.007Z,21
2018-12-31T10:27:55.788Z,21.3
2018-12-31T10:28:45.816Z,21.4
2018-12-31T10:29:42.383Z,21.6
2018-12-31T10:30:25.341Z,21.8
2018-12-31T10:31:15.633Z,21.9
2018-12-31T10:32:05.512Z,22.1
2018-12-31T10:32:56.718Z,22.2
2018-12-31T10:33:45.100Z,22.3
2018-12-31T10:34:37.121Z,22.4
2018-12-31T10:35:25.464Z,22.5
2018-12-31T10:36:15.332Z,22.6
2018-12-31T10:37:06.058Z,22.7
2018-12-31T10:37:55.093Z,22.8
2018-12-31T10:38:52.351Z,22.3
2018-12-31T10:39:34.128Z,21.6
2018-12-31T10:40:25.583Z,21.3
2018-12-31T10:41:15.880Z,20.9
2018-12-31T10:42:04.570Z,20.6
2018-12-31T10:42:54.633Z,20.4
2018-12-31T10:43:45.822Z,20.3
2018-12-31T10:44:36.648Z,20.1
2018-12-31T10:45:25.789Z,19.9
2018-12-31T10:46:15.542Z,19.8
2018-12-31T10:47:05.955Z,19.7
2018-12-31T10:47:56.792Z,19.7
2018-12-31T10:48:46.927Z,19.4
2018-12-31T10:49:36.909Z,19.3
2018-12-31T10:50:26.982Z,19.1
2018-12-31T10:51:15.917Z,18.9
2018-12-31T10:52:07.998Z,18.8
2018-12-31T10:52:56.619Z,19.3
2018-12-31T10:53:46.445Z,19.9
2018-12-31T10:54:36.792Z,20.3
2018-12-31T10:55:27.059Z,20.6
2018-12-31T10:56:17.089Z,20.9
2018-12-31T10:57:07.391Z,21.2
2018-12-31T10:57:56.942Z,21.4
2018-12-31T10:58:47.579Z,21.6
2018-12-31T10:59:36.514Z,21.3
2018-12-31T11:00:27.156Z,20.7
2018-12-31T11:01:16.889Z,19.8
2018-12-31T11:02:07.551Z,19.3
2018-12-31T11:02:56.771Z,18.6
2018-12-31T11:03:49.679Z,17.8
2018-12-31T11:04:37.370Z,17.4
2018-12-31T11:05:27.868Z,17.5
2018-12-31T11:06:16.930Z,18
2018-12-31T11:07:08.171Z,18.8
2018-12-31T11:07:57.338Z,19.4
2018-12-31T11:08:48.208Z,19.9
2018-12-31T11:09:37.441Z,20.4
2018-12-31T11:10:28.131Z,20.8
2018-12-31T11:11:17.860Z,21.1
2018-12-31T11:12:07.403Z,21.3
2018-12-31T11:12:58.253Z,21.5
2018-12-31T11:13:47.738Z,21.7
2018-12-31T11:14:38.416Z,21.9
2018-12-31T11:15:28.157Z,22.1
2018-12-31T11:16:17.744Z,22.2
2018-12-31T11:17:07.465Z,22.3
2018-12-31T11:17:59.848Z,22.4
2018-12-31T11:18:47.795Z,22.5
2018-12-31T11:19:40.489Z,22.6
2018-12-31T11:20:28.575Z,22.8
2018-12-31T11:21:18.778Z,22.8
2018-12-31T11:22:08.900Z,22.7
2018-12-31T11:22:58.708Z,22.1
2018-12-31T11:23:47.852Z,21.6
2018-12-31T11:24:38.495Z,21.3
2018-12-31T11:25:29.880Z,20.8
2018-12-31T11:26:17.505Z,20.5
2018-12-31T11:27:08.357Z,20.3
2018-12-31T11:27:59.590Z,20.1
2018-12-31T11:28:48.787Z,19.9
2018-12-31T11:29:39.896Z,19.9
2018-12-31T11:30:31.170Z,19.8
2018-12-31T11:31:19.225Z,19.8
2018-12-31T11:32:08.972Z,19.6
2018-12-31T11:32:59.576Z,19.4
2018-12-31T11:33:50.164Z,19.2
2018-12-31T11:34:39.459Z,19
2018-12-31T11:35:28.354Z,18.9
2018-12-31T11:36:20.079Z,19.4
2018-12-31T11:37:09.042Z,20.1
2018-12-31T11:38:00.004Z,20.6
2018-12-31T11:38:49.724Z,20.9
2018-12-31T11:39:38.729Z,21.2
2018-12-31T11:40:29.612Z,21.5
2018-12-31T11:41:21.016Z,21.7
2018-12-31T11:42:09.679Z,21.9
2018-12-31T11:42:59.183Z,22.1
2018-12-31T11:43:50.299Z,22.2
2018-12-31T11:44:40.083Z,22.3
2018-12-31T11:45:30.806Z,22.4
2018-12-31T11:46:21.062Z,22.6
2018-12-31T11:47:11.359Z,22.7
2018-12-31T11:48:00.876Z,22.8
2018-12-31T11:48:50.415Z,22.9
2018-12-31T11:49:40.723Z,22.8
2018-12-31T11:50:30.553Z,22.2
2018-12-31T11:51:20.861Z,21.8
2018-12-31T11:52:10.313Z,21.3
2018-12-31T11:53:00.368Z,21
2018-12-31T11:53:50.988Z,20.8
2018-12-31T11:54:42.802Z,20.5
2018-12-31T11:55:30.375Z,20.3
2018-12-31T11:56:20.933Z,20.2
2018-12-31T11:57:10.648Z,20
2018-12-31T11:58:00.771Z,19.9
2018-12-31T11:58:51.613Z,19.8
2018-12-31T11:59:40.560Z,19.8
2018-12-31T12:00:30.730Z,19.6
2018-12-31T12:01:22.505Z,19.3
2018-12-31T12:02:10.768Z,19.1
2018-12-31T12:03:01.398Z,19
2018-12-31T12:03:51.940Z,19
2018-12-31T12:04:41.457Z,19.7
2018-12-31T12:05:31.560Z,20.3
2018-12-31T12:06:21.867Z,20.8
2018-12-31T12:07:11.370Z,21
2018-12-31T12:08:01.760Z,21.3
2018-12-31T12:08:53.960Z,21.6
2018-12-31T12:09:41.892Z,21.8